Time;durP1;ratioP1;P1;durP2;ratioP2;P2;SDS_P1;SDS_P2;PMS_P1;PMS_P2;Temp;Humidity;BMP_temperature;BMP_pressure;BME280_temperature;BME280_humidity;BME280_pressure;Samples;Min_cycle;Max_cycle;Signal;HPM_P1;HPM_P2
2022/01/14 00:00:27;;;;;;;86.53;33.35;;;4.70;99.90;;;;;;5080908;28;20036;-44
2022/01/14 00:02:53;;;;;;;87.72;34.88;;;4.70;99.90;;;;;;5080849;28;20035;-45
2022/01/14 00:05:18;;;;;;;87.78;34.60;;;4.70;99.90;;;;;;5084337;28;20027;-46
2022/01/14 00:07:44;;;;;;;83.22;33.35;;;4.70;99.90;;;;;;5076862;28;20016;-45
2022/01/14 00:10:10;;;;;;;85.68;32.95;;;4.70;99.90;;;;;;5068782;28;20020;-45
2022/01/14 00:12:40;;;;;;;83.05;33.15;;;4.70;99.90;;;;;;5074276;28;20644;-44
2022/01/14 00:15:24;;;;;;;80.60;34.45;;;4.60;99.90;;;;;;5080817;28;20020;-44
2022/01/14 00:17:51;;;;;;;90.88;35.38;;;4.70;99.90;;;;;;5077466;28;20027;-45
2022/01/14 00:20:18;;;;;;;87.70;33.95;;;4.70;99.90;;;;;;5077247;28;20017;-44
2022/01/14 00:22:43;;;;;;;74.75;33.63;;;4.60;99.90;;;;;;5063311;28;20013;-44
2022/01/14 00:33:09;;;;;;;85.07;33.22;;;4.60;99.90;;;;;;5052770;28;20646;-44
2022/01/14 00:35:37;;;;;;;90.50;32.55;;;4.60;99.90;;;;;;5075014;28;20024;-43
2022/01/14 00:38:03;;;;;;;95.32;35.88;;;4.40;99.90;;;;;;5086447;28;20024;-44
2022/01/14 00:40:29;;;;;;;79.93;32.80;;;4.40;99.90;;;;;;5088981;28;20077;-44
2022/01/14 00:42:55;;;;;;;99.15;36.40;;;4.40;99.90;;;;;;5072057;28;20592;-44
2022/01/14 00:45:21;;;;;;;74.35;33.03;;;4.50;99.90;;;;;;5068495;28;20036;-44
2022/01/14 00:47:48;;;;;;;78.88;35.33;;;4.40;99.90;;;;;;5067193;28;20035;-44
2022/01/14 00:50:16;;;;;;;83.03;34.65;;;4.40;99.90;;;;;;5079615;28;20443;-44
2022/01/14 00:52:42;;;;;;;81.32;36.05;;;4.40;99.90;;;;;;5083545;28;20429;-44
2022/01/14 00:55:14;;;;;;;86.57;34.67;;;4.40;99.90;;;;;;5078841;28;20060;-44
2022/01/14 01:00:30;;;;;;;90.35;35.65;;;4.30;99.90;;;;;;5088273;28;20054;-44
2022/01/14 01:02:55;;;;;;;80.97;34.63;;;4.30;99.90;;;;;;5082990;28;20023;-44
2022/01/14 01:05:22;;;;;;;92.20;35.97;;;4.30;99.90;;;;;;5081172;28;20474;-44
2022/01/14 01:08:24;;;;;;;85.47;33.13;;;4.30;99.90;;;;;;5079548;28;20660;-44
2022/01/14 01:10:47;;;;;;;85.22;35.92;;;4.30;99.90;;;;;;5082006;28;20048;-44
2022/01/14 01:13:20;;;;;;;88.35;35.88;;;4.30;99.90;;;;;;5084771;28;20028;-44
2022/01/14 01:15:47;;;;;;;89.43;36.40;;;4.30;99.90;;;;;;5083764;28;20020;-44
2022/01/14 01:18:12;;;;;;;86.53;35.13;;;4.40;99.90;;;;;;5086401;28;20482;-44
2022/01/14 01:20:38;;;;;;;74.20;32.35;;;4.40;99.90;;;;;;5083301;28;20078;-45
2022/01/14 01:23:04;;;;;;;79.13;34.03;;;4.40;99.90;;;;;;5092179;28;20020;-44
2022/01/14 01:25:37;;;;;;;80.75;32.60;;;4.40;99.90;;;;;;5081901;28;20017;-44
2022/01/14 01:28:03;;;;;;;90.63;36.85;;;4.50;99.90;;;;;;5089018;28;20562;-44
2022/01/14 01:32:55;;;;;;;84.78;34.67;;;4.40;99.90;;;;;;5089043;28;20031;-44
2022/01/14 01:35:20;;;;;;;87.82;36.20;;;4.40;99.90;;;;;;5086742;28;20104;-44
2022/01/14 01:37:46;;;;;;;85.88;35.80;;;4.40;99.90;;;;;;5082747;28;20028;-44
2022/01/14 01:40:14;;;;;;;83.18;33.63;;;4.40;99.90;;;;;;5089597;28;20107;-44
2022/01/14 01:42:42;;;;;;;81.50;34.30;;;4.30;99.90;;;;;;5080024;28;20374;-45
2022/01/14 01:45:11;;;;;;;89.05;34.38;;;4.30;99.90;;;;;;5089981;28;20052;-45
2022/01/14 01:47:37;;;;;;;89.43;35.63;;;4.30;99.90;;;;;;5081114;28;20024;-44
2022/01/14 01:50:13;;;;;;;93.45;35.15;;;4.40;99.90;;;;;;5089440;28;20036;-44
2022/01/14 01:52:38;;;;;;;88.93;33.13;;;4.30;99.90;;;;;;5082267;28;20085;-45
2022/01/14 01:55:05;;;;;;;85.82;34.42;;;4.40;99.90;;;;;;5083140;28;20630;-45
2022/01/14 01:57:31;;;;;;;88.28;36.20;;;4.30;99.90;;;;;;5090784;28;20072;-46
2022/01/14 01:59:56;;;;;;;90.35;34.67;;;4.30;99.90;;;;;;5078864;28;20103;-45
2022/01/14 02:02:22;;;;;;;86.15;35.90;;;4.30;99.90;;;;;;5091768;28;20466;-46
2022/01/14 02:04:47;;;;;;;82.07;33.40;;;4.30;99.90;;;;;;5079303;28;20031;-44
2022/01/14 02:07:13;;;;;;;85.50;34.33;;;4.30;99.90;;;;;;5090580;28;20092;-46
2022/01/14 02:09:39;;;;;;;81.30;33.28;;;4.30;99.90;;;;;;5080441;28;20119;-44
2022/01/14 02:12:09;;;;;;;81.90;34.72;;;4.40;99.90;;;;;;5088096;28;20032;-45
2022/01/14 02:19:30;;;;;;;86.72;35.33;;;4.50;99.90;;;;;;5083269;28;20100;-46
2022/01/14 02:22:12;;;;;;;89.43;35.93;;;4.40;99.90;;;;;;5082204;28;20133;-45
2022/01/14 02:27:06;;;;;;;86.22;34.38;;;4.40;99.90;;;;;;5082514;28;20055;-45
2022/01/14 02:29:32;;;;;;;88.03;37.15;;;4.40;99.90;;;;;;5090025;28;20027;-45
2022/01/14 02:31:58;;;;;;;85.90;35.80;;;4.40;99.90;;;;;;5082672;28;20460;-45
2022/01/14 02:34:23;;;;;;;89.72;35.03;;;4.40;99.90;;;;;;5083690;28;20366;-45
2022/01/14 02:36:50;;;;;;;95.40;35.03;;;4.40;99.90;;;;;;5084862;28;20034;-45
2022/01/14 02:39:17;;;;;;;89.25;34.10;;;4.40;99.90;;;;;;5081366;28;20032;-45
2022/01/14 02:41:44;;;;;;;87.28;33.70;;;4.40;99.90;;;;;;5085250;28;20067;-45
2022/01/14 02:44:12;;;;;;;80.95;35.70;;;4.40;99.90;;;;;;5080492;28;20024;-45
2022/01/14 02:46:42;;;;;;;87.97;32.65;;;4.40;99.90;;;;;;5087317;28;20475;-45
2022/01/14 02:49:09;;;;;;;81.53;30.83;;;4.30;99.90;;;;;;5081037;28;20127;-45
2022/01/14 02:51:34;;;;;;;86.45;33.78;;;4.30;99.90;;;;;;5084308;28;20055;-45
2022/01/14 02:54:20;;;;;;;90.60;33.72;;;4.30;99.90;;;;;;5079231;28;20021;-45
2022/01/14 02:56:52;;;;;;;84.47;32.50;;;4.30;99.90;;;;;;5083610;28;20482;-45
2022/01/14 02:59:20;;;;;;;86.63;33.03;;;4.30;99.90;;;;;;5080951;28;20504;-44
2022/01/14 03:01:48;;;;;;;81.30;35.20;;;4.40;99.90;;;;;;5083807;28;20036;-46
2022/01/14 03:04:16;;;;;;;96.75;34.75;;;4.40;99.90;;;;;;5080288;28;20017;-45
2022/01/14 03:06:42;;;;;;;83.93;33.30;;;4.40;99.90;;;;;;5090064;28;20025;-47
2022/01/14 03:09:08;;;;;;;91.53;34.58;;;4.40;99.90;;;;;;5077872;28;20034;-45
2022/01/14 03:11:52;;;;;;;83.07;31.88;;;4.40;99.90;;;;;;5083119;28;20487;-44
2022/01/14 03:14:24;;;;;;;84.85;32.75;;;4.40;99.90;;;;;;5085340;28;20045;-46
2022/01/14 03:16:51;;;;;;;88.20;33.70;;;4.40;99.90;;;;;;5081406;28;20020;-44
2022/01/14 03:19:21;;;;;;;87.78;34.33;;;4.40;99.90;;;;;;5086049;28;20045;-45
2022/01/14 03:21:49;;;;;;;75.20;32.53;;;4.40;99.90;;;;;;5081050;28;20012;-46
2022/01/14 03:24:19;;;;;;;81.88;33.30;;;4.40;99.90;;;;;;5087628;28;20481;-44
2022/01/14 03:26:46;;;;;;;81.95;33.85;;;4.40;99.90;;;;;;5079735;28;20016;-45
2022/01/14 03:29:13;;;;;;;84.13;34.38;;;4.40;99.90;;;;;;5084709;28;20036;-45
2022/01/14 03:31:39;;;;;;;79.38;34.42;;;4.40;99.90;;;;;;5058851;28;20024;-45
2022/01/14 03:34:05;;;;;;;84.78;34.17;;;4.40;99.90;;;;;;5082998;28;20393;-45
2022/01/14 03:36:30;;;;;;;88.72;35.28;;;4.40;99.90;;;;;;5069113;28;20027;-48
2022/01/14 03:38:56;;;;;;;79.32;33.50;;;4.40;99.90;;;;;;5082053;28;20120;-47
2022/01/14 03:41:22;;;;;;;86.53;36.00;;;4.40;99.90;;;;;;5076496;28;20024;-47
2022/01/14 03:43:47;;;;;;;92.60;35.42;;;4.50;99.90;;;;;;5085215;28;20031;-45
2022/01/14 03:46:13;;;;;;;89.75;34.47;;;4.40;99.90;;;;;;5078942;28;20107;-45
2022/01/14 03:48:38;;;;;;;90.47;33.38;;;4.40;99.90;;;;;;5080179;28;20059;-45
2022/01/14 03:51:04;;;;;;;82.68;34.28;;;4.40;99.90;;;;;;5080591;28;20020;-45
2022/01/14 03:53:30;;;;;;;84.55;33.15;;;4.40;99.90;;;;;;5081436;28;20154;-45
2022/01/14 03:55:56;;;;;;;84.68;34.55;;;4.40;99.90;;;;;;5081532;28;20016;-45
2022/01/14 03:58:21;;;;;;;90.95;34.78;;;4.40;99.90;;;;;;5077820;28;20020;-45
2022/01/14 04:00:47;;;;;;;79.85;32.13;;;4.40;99.90;;;;;;5081946;28;20115;-45
2022/01/14 04:03:12;;;;;;;89.00;34.22;;;4.40;99.90;;;;;;5079357;28;20024;-45
2022/01/14 04:05:38;;;;;;;91.93;35.60;;;4.40;99.90;;;;;;5080999;28;20028;-45
2022/01/14 04:08:04;;;;;;;101.85;34.63;;;4.50;99.90;;;;;;5078066;28;20107;-45
2022/01/14 04:10:30;;;;;;;98.97;34.85;;;4.50;99.90;;;;;;5083267;28;20020;-46
2022/01/14 04:15:37;;;;;;;95.78;36.15;;;4.40;99.90;;;;;;5084274;28;20020;-45
2022/01/14 04:18:15;;;;;;;81.95;33.10;;;4.40;99.90;;;;;;5078839;28;20020;-45
2022/01/14 04:20:42;;;;;;;96.50;36.35;;;4.40;99.90;;;;;;5084527;28;20032;-47
2022/01/14 04:23:11;;;;;;;86.68;35.60;;;4.40;99.90;;;;;;5078977;28;20031;-47
2022/01/14 04:25:37;;;;;;;91.43;36.40;;;4.40;99.90;;;;;;5084924;28;20023;-44
2022/01/14 04:28:05;;;;;;;85.68;31.80;;;4.30;99.90;;;;;;5078049;28;20028;-44
2022/01/14 04:30:31;;;;;;;95.85;33.33;;;4.40;99.90;;;;;;5083147;28;20016;-44
2022/01/14 04:32:57;;;;;;;94.97;33.92;;;4.30;99.90;;;;;;5076030;28;20052;-46
2022/01/14 04:35:24;;;;;;;86.65;33.80;;;4.40;99.90;;;;;;5084511;28;20482;-46
2022/01/14 04:37:50;;;;;;;95.68;34.97;;;4.40;99.90;;;;;;5074804;28;20490;-48
2022/01/14 04:40:15;;;;;;;78.00;32.80;;;4.40;99.90;;;;;;5086945;28;20141;-45
2022/01/14 04:42:42;;;;;;;88.88;33.53;;;4.40;99.90;;;;;;5073549;28;20039;-44
2022/01/14 04:45:15;;;;;;;87.53;33.90;;;4.50;99.90;;;;;;5086317;28;20465;-44
2022/01/14 04:47:44;;;;;;;77.97;33.80;;;4.40;99.90;;;;;;5080833;28;20024;-44
2022/01/14 04:50:14;;;;;;;82.50;34.70;;;4.40;99.90;;;;;;5082396;28;20020;-44
2022/01/14 04:52:42;;;;;;;81.93;32.70;;;4.50;99.90;;;;;;5081306;28;20257;-44
2022/01/14 04:55:09;;;;;;;79.10;32.53;;;4.40;99.90;;;;;;5081486;28;20111;-44
2022/01/14 04:57:35;;;;;;;79.05;33.35;;;4.40;99.90;;;;;;5088712;28;20590;-44
2022/01/14 05:00:01;;;;;;;81.05;34.50;;;4.40;99.90;;;;;;5089732;28;20316;-45
2022/01/14 05:02:27;;;;;;;84.45;34.15;;;4.40;99.90;;;;;;5090717;28;20035;-45
2022/01/14 05:04:55;;;;;;;91.80;35.45;;;4.50;99.90;;;;;;5091030;28;20026;-44
2022/01/14 05:07:26;;;;;;;83.25;32.13;;;4.50;99.90;;;;;;5090743;28;20507;-45
2022/01/14 05:10:47;;;;;;;89.88;34.33;;;4.50;99.90;;;;;;5090940;28;20396;-44
2022/01/14 05:12:42;;;;;;;80.72;33.50;;;4.40;99.90;;;;;;5078193;28;20486;-45
2022/01/14 05:15:09;;;;;;;83.93;32.92;;;4.40;99.90;;;;;;5089404;28;20520;-45
2022/01/14 05:17:34;;;;;;;82.00;34.20;;;4.40;99.90;;;;;;5090177;28;20131;-45
2022/01/14 05:20:00;;;;;;;92.97;34.50;;;4.50;99.90;;;;;;5089137;28;20533;-44
2022/01/14 05:22:26;;;;;;;90.57;33.00;;;4.50;99.90;;;;;;5078910;28;20078;-46
2022/01/14 05:24:52;;;;;;;88.68;32.42;;;4.50;99.90;;;;;;5086892;28;20436;-47
2022/01/14 05:27:17;;;;;;;80.07;32.97;;;4.50;99.90;;;;;;5089763;28;20032;-44
2022/01/14 05:29:43;;;;;;;76.55;32.65;;;4.50;99.90;;;;;;5090421;28;20079;-45
2022/01/14 05:32:12;;;;;;;69.82;31.05;;;4.40;99.90;;;;;;5090567;28;20032;-45
2022/01/14 05:34:39;;;;;;;77.45;32.15;;;4.50;99.90;;;;;;5084719;28;20024;-44
2022/01/14 05:37:06;;;;;;;76.32;32.45;;;4.50;99.90;;;;;;5079441;28;20094;-45
2022/01/14 05:39:32;;;;;;;90.15;34.67;;;4.50;99.90;;;;;;5065404;28;20064;-45
2022/01/14 05:41:59;;;;;;;78.28;33.22;;;4.60;99.90;;;;;;5059985;28;20040;-46
2022/01/14 05:44:26;;;;;;;84.65;32.17;;;4.60;99.90;;;;;;5064362;28;20436;-46
2022/01/14 05:46:53;;;;;;;70.68;31.30;;;4.60;99.90;;;;;;5076950;28;20103;-48
2022/01/14 05:49:19;;;;;;;73.70;29.55;;;4.60;99.90;;;;;;5072584;28;20035;-45
2022/01/14 05:51:45;;;;;;;77.22;30.58;;;4.60;99.90;;;;;;5089952;28;20036;-48
2022/01/14 05:54:11;;;;;;;72.93;31.75;;;4.70;99.90;;;;;;5089774;28;20393;-46
2022/01/14 05:56:37;;;;;;;83.53;32.20;;;4.60;99.90;;;;;;5090106;28;20024;-46
2022/01/14 05:59:03;;;;;;;76.13;31.60;;;4.60;99.90;;;;;;5088599;28;20028;-48
2022/01/14 06:01:30;;;;;;;75.80;31.15;;;4.60;99.90;;;;;;5089281;28;20032;-47
2022/01/14 06:03:57;;;;;;;75.07;31.17;;;4.70;99.90;;;;;;5075008;28;20098;-46
2022/01/14 06:06:23;;;;;;;73.85;31.30;;;4.70;99.90;;;;;;5069105;28;20035;-45
2022/01/14 06:08:49;;;;;;;74.88;30.92;;;4.60;99.90;;;;;;5068706;28;20021;-46
2022/01/14 06:11:15;;;;;;;73.88;29.77;;;4.70;99.90;;;;;;5071136;28;20020;-47
2022/01/14 06:13:40;;;;;;;80.55;30.13;;;4.60;99.90;;;;;;5081186;28;20028;-46
2022/01/14 06:16:06;;;;;;;79.32;32.15;;;4.60;99.90;;;;;;5088225;28;20028;-46
2022/01/14 06:18:31;;;;;;;65.45;28.95;;;4.60;99.90;;;;;;5089148;28;20573;-48
2022/01/14 06:20:57;;;;;;;76.28;31.30;;;4.70;99.90;;;;;;5078465;28;20028;-47
2022/01/14 06:23:22;;;;;;;71.55;30.38;;;4.70;99.90;;;;;;5080777;28;20024;-46
2022/01/14 06:25:48;;;;;;;71.25;32.25;;;4.70;99.90;;;;;;5083008;28;20032;-46
2022/01/14 06:28:13;;;;;;;78.18;31.05;;;4.70;99.90;;;;;;5079028;28;20024;-46
2022/01/14 06:30:39;;;;;;;76.65;30.63;;;4.70;99.90;;;;;;5084947;28;20130;-46
2022/01/14 06:33:05;;;;;;;78.10;31.25;;;4.80;99.90;;;;;;5078728;28;20039;-47
2022/01/14 06:35:30;;;;;;;67.38;29.05;;;4.80;99.90;;;;;;5086247;28;20141;-46
2022/01/14 06:37:57;;;;;;;73.60;28.35;;;4.80;99.90;;;;;;5076900;28;20027;-46
2022/01/14 06:40:23;;;;;;;64.70;29.65;;;4.80;99.90;;;;;;5088945;28;20020;-46
2022/01/14 06:42:50;;;;;;;74.05;29.83;;;4.90;99.90;;;;;;5088906;28;20106;-46
2022/01/14 06:45:16;;;;;;;69.38;29.75;;;4.80;99.90;;;;;;5088846;28;20035;-46
2022/01/14 06:47:41;;;;;;;70.93;31.10;;;4.80;99.90;;;;;;5087832;28;20039;-46
2022/01/14 06:50:07;;;;;;;77.07;29.42;;;4.80;99.90;;;;;;5088400;28;20493;-45
2022/01/14 06:52:33;;;;;;;69.95;27.40;;;4.90;99.90;;;;;;5088555;28;20120;-46
2022/01/14 06:54:58;;;;;;;64.28;28.83;;;4.90;99.90;;;;;;5088790;28;20036;-47
2022/01/14 06:57:24;;;;;;;67.68;29.05;;;4.90;99.90;;;;;;5088036;28;20051;-46
2022/01/14 06:59:50;;;;;;;66.95;28.85;;;4.90;99.90;;;;;;5088173;28;20500;-46
2022/01/14 07:02:16;;;;;;;62.95;28.02;;;4.90;99.90;;;;;;5080152;28;20028;-46
2022/01/14 07:04:42;;;;;;;59.20;29.10;;;4.90;99.90;;;;;;5082342;28;20377;-46
2022/01/14 07:07:07;;;;;;;59.70;27.15;;;4.90;99.90;;;;;;5088058;28;20039;-46
2022/01/14 07:09:34;;;;;;;70.03;27.58;;;4.90;99.90;;;;;;5087528;28;20481;-45
2022/01/14 07:12:02;;;;;;;59.33;25.35;;;5.00;99.90;;;;;;5083471;28;20031;-46
2022/01/14 07:14:29;;;;;;;65.20;28.02;;;4.90;99.90;;;;;;5081428;28;20032;-46
2022/01/14 07:16:55;;;;;;;63.33;26.77;;;5.00;99.90;;;;;;5088095;28;20023;-46
2022/01/14 07:19:22;;;;;;;64.63;26.90;;;5.00;99.90;;;;;;5078181;28;20019;-46
2022/01/14 07:21:47;;;;;;;59.67;27.27;;;5.00;99.90;;;;;;5079297;28;20073;-45
2022/01/14 07:24:13;;;;;;;62.40;26.80;;;5.00;99.90;;;;;;5088258;28;20024;-47
2022/01/14 07:26:40;;;;;;;62.65;27.65;;;5.00;99.90;;;;;;5083273;28;20020;-47
2022/01/14 07:29:07;;;;;;;61.45;26.88;;;5.00;99.90;;;;;;5078195;28;20076;-46
2022/01/14 07:31:33;;;;;;;67.03;27.55;;;5.00;99.90;;;;;;5083177;28;20020;-46
2022/01/14 07:33:58;;;;;;;66.40;27.52;;;5.00;99.90;;;;;;5077862;28;20550;-47
2022/01/14 07:36:24;;;;;;;61.28;28.52;;;5.10;99.90;;;;;;5084424;28;20020;-48
2022/01/14 07:38:50;;;;;;;61.15;26.42;;;5.10;99.90;;;;;;5079068;28;20031;-45
2022/01/14 07:41:16;;;;;;;70.78;27.92;;;5.10;99.90;;;;;;5085126;28;20358;-47
2022/01/14 07:43:46;;;;;;;64.75;27.17;;;5.10;99.90;;;;;;5079575;28;20269;-46
2022/01/14 07:46:12;;;;;;;68.38;27.60;;;5.20;99.90;;;;;;5087814;28;20016;-46
2022/01/14 07:48:38;;;;;;;61.00;26.55;;;5.10;99.90;;;;;;5086772;28;20460;-46
2022/01/14 07:51:03;;;;;;;64.97;26.48;;;5.10;99.90;;;;;;5083384;28;20486;-47
2022/01/14 07:53:29;;;;;;;68.35;26.75;;;5.10;99.90;;;;;;5080721;28;20081;-46
2022/01/14 07:55:55;;;;;;;63.40;27.60;;;5.10;99.90;;;;;;5087856;28;20124;-46
2022/01/14 07:58:20;;;;;;;64.82;26.98;;;5.10;99.90;;;;;;5087282;28;20032;-46
2022/01/14 08:00:46;;;;;;;64.88;25.83;;;5.10;99.90;;;;;;5086107;28;20107;-48
2022/01/14 08:03:11;;;;;;;70.43;27.00;;;5.10;99.90;;;;;;5069391;28;20028;-46
2022/01/14 08:05:37;;;;;;;62.65;26.27;;;5.20;99.90;;;;;;5087587;28;20031;-46
2022/01/14 08:08:04;;;;;;;66.15;26.27;;;5.20;99.90;;;;;;5085395;28;20020;-46
2022/01/14 08:10:36;;;;;;;56.42;25.15;;;5.20;99.90;;;;;;5086471;28;20016;-47
2022/01/14 08:13:01;;;;;;;66.75;27.42;;;5.20;99.90;;;;;;5076731;28;20044;-46
2022/01/14 08:15:27;;;;;;;62.03;25.73;;;5.30;99.90;;;;;;5087838;28;20539;-46
2022/01/14 08:17:54;;;;;;;62.97;25.17;;;5.30;99.90;;;;;;5086407;28;20596;-47
2022/01/14 08:20:20;;;;;;;56.25;24.83;;;5.30;99.90;;;;;;5086835;28;20032;-46
2022/01/14 08:22:45;;;;;;;58.38;26.05;;;5.30;99.90;;;;;;5081865;28;20629;-46
2022/01/14 08:25:11;;;;;;;61.15;26.95;;;5.30;99.90;;;;;;5083441;28;20366;-46
2022/01/14 08:27:36;;;;;;;60.53;27.30;;;5.30;99.90;;;;;;5081777;28;20017;-45
2022/01/14 08:30:04;;;;;;;60.28;25.77;;;5.30;99.90;;;;;;5081449;28;20497;-46
2022/01/14 08:32:29;;;;;;;70.40;26.52;;;5.30;99.90;;;;;;5091528;28;20032;-46
2022/01/14 08:34:55;;;;;;;56.70;24.20;;;5.30;99.90;;;;;;5081927;28;20058;-46
2022/01/14 08:37:20;;;;;;;61.90;27.08;;;5.30;99.90;;;;;;5082693;28;20111;-47
2022/01/14 08:39:46;;;;;;;61.58;26.63;;;5.30;99.90;;;;;;5091386;28;20163;-47
2022/01/14 08:42:12;;;;;;;58.78;26.40;;;5.40;99.90;;;;;;5082274;28;20116;-47
2022/01/14 08:44:38;;;;;;;58.03;25.58;;;5.40;99.90;;;;;;5082295;28;20020;-47
2022/01/14 08:47:09;;;;;;;52.90;25.58;;;5.40;99.90;;;;;;5082915;28;20021;-49
2022/01/14 08:49:35;;;;;;;62.08;25.83;;;5.40;99.90;;;;;;5082208;28;20028;-48
2022/01/14 08:52:00;;;;;;;57.35;26.00;;;5.40;99.90;;;;;;5085774;28;20048;-47
2022/01/14 08:54:26;;;;;;;54.70;24.90;;;5.40;99.90;;;;;;5080842;28;20077;-47
2022/01/14 08:56:51;;;;;;;63.55;25.92;;;5.40;99.90;;;;;;5091008;28;20024;-47
2022/01/14 08:59:17;;;;;;;58.85;27.13;;;5.50;99.90;;;;;;5089934;28;20058;-49
2022/01/14 09:01:43;;;;;;;70.65;28.48;;;5.50;99.90;;;;;;5086560;28;20458;-45
2022/01/14 09:04:09;;;;;;;65.32;25.17;;;5.50;99.90;;;;;;5082891;28;20035;-47
2022/01/14 09:06:34;;;;;;;68.80;25.63;;;5.50;99.90;;;;;;5087405;28;20028;-50
2022/01/14 09:09:00;;;;;;;56.83;25.02;;;5.50;99.90;;;;;;5078957;28;20028;-48
2022/01/14 09:11:26;;;;;;;59.50;28.30;;;5.60;99.90;;;;;;5086532;28;20028;-47
2022/01/14 09:13:51;;;;;;;63.70;24.70;;;5.60;99.90;;;;;;5075538;28;20521;-45
2022/01/14 09:16:20;;;;;;;63.97;24.88;;;5.60;99.90;;;;;;5088345;28;20619;-45
2022/01/14 09:18:48;;;;;;;60.33;25.80;;;5.60;99.90;;;;;;5076667;28;20099;-46
2022/01/14 09:21:16;;;;;;;59.70;27.50;;;5.70;99.90;;;;;;5066897;28;20024;-45
2022/01/14 09:23:43;;;;;;;68.32;27.00;;;5.70;99.90;;;;;;5075589;28;20568;-45
2022/01/14 09:26:09;;;;;;;62.78;26.98;;;5.70;99.90;;;;;;5088148;28;20020;-45
2022/01/14 09:28:34;;;;;;;59.55;26.52;;;5.80;99.90;;;;;;5078544;28;20485;-45
2022/01/14 09:31:00;;;;;;;62.30;27.23;;;5.70;99.90;;;;;;5087529;28;20035;-46
2022/01/14 09:33:26;;;;;;;64.57;25.67;;;5.70;99.90;;;;;;5081245;28;20502;-46
2022/01/14 09:35:52;;;;;;;60.88;25.80;;;5.70;99.90;;;;;;5081249;28;20035;-46
2022/01/14 09:38:18;;;;;;;76.28;27.52;;;5.70;99.90;;;;;;5085018;28;20028;-46
2022/01/14 09:40:48;;;;;;;58.70;26.92;;;5.80;99.90;;;;;;5080470;28;20075;-45
2022/01/14 09:43:15;;;;;;;62.28;28.13;;;5.70;99.90;;;;;;5088023;28;20683;-46
2022/01/14 09:45:40;;;;;;;56.58;25.85;;;5.80;99.90;;;;;;5079895;28;20448;-47
2022/01/14 09:48:06;;;;;;;62.55;26.55;;;5.80;99.90;;;;;;5085661;28;20294;-45
2022/01/14 09:50:33;;;;;;;52.00;26.23;;;5.80;99.90;;;;;;5077394;28;20505;-45
2022/01/14 09:52:59;;;;;;;53.38;28.02;;;5.90;99.90;;;;;;5086615;28;20451;-45
2022/01/14 09:55:24;;;;;;;52.70;25.77;;;5.90;99.90;;;;;;5077602;28;20112;-45
2022/01/14 09:57:53;;;;;;;62.25;27.88;;;5.90;99.90;;;;;;5084385;28;20024;-45
2022/01/14 10:00:19;;;;;;;65.20;27.38;;;5.90;99.90;;;;;;5079534;28;20012;-46
2022/01/14 10:02:44;;;;;;;55.97;25.73;;;5.90;99.90;;;;;;5083649;28;20024;-45
2022/01/14 10:05:36;;;;;;;54.20;26.17;;;6.00;99.90;;;;;;5075633;28;20443;-47
2022/01/14 10:08:23;;;;;;;59.03;26.35;;;6.00;99.90;;;;;;5065830;28;20021;-48
2022/01/14 10:10:54;;;;;;;60.17;27.58;;;6.00;99.90;;;;;;5056897;28;20033;-50
2022/01/14 10:13:23;;;;;;;57.85;27.25;;;6.00;99.90;;;;;;5067439;28;20402;-48
2022/01/14 10:15:52;;;;;;;54.13;26.15;;;6.00;99.90;;;;;;5075981;28;20028;-46
2022/01/14 10:18:20;;;;;;;65.57;26.63;;;6.10;99.90;;;;;;5071419;28;20024;-47
2022/01/14 10:20:46;;;;;;;58.72;26.00;;;6.10;99.90;;;;;;5082154;28;20529;-46
2022/01/14 10:23:12;;;;;;;59.58;26.55;;;6.20;99.90;;;;;;5079239;28;20410;-46
2022/01/14 10:25:40;;;;;;;71.03;28.13;;;6.20;99.90;;;;;;5083336;28;20024;-47
2022/01/14 10:28:17;;;;;;;65.60;28.42;;;6.20;99.90;;;;;;5061510;28;20083;-46
2022/01/14 10:30:47;;;;;;;77.90;28.52;;;6.20;99.90;;;;;;5062354;28;20201;-48
2022/01/14 10:33:12;;;;;;;59.50;27.83;;;6.10;99.90;;;;;;5064347;28;20032;-47
2022/01/14 10:35:43;;;;;;;55.35;26.27;;;6.20;99.90;;;;;;5060192;28;20370;-47
2022/01/14 10:38:10;;;;;;;;;;;6.20;99.90;;;;;;5079880;28;20020;-46
2022/01/14 10:40:41;;;;;;;62.20;27.33;;;6.20;99.90;;;;;;5080746;28;19911;-48
2022/01/14 10:43:10;;;;;;;61.10;27.05;;;6.20;99.90;;;;;;5077131;28;20031;-48
2022/01/14 10:45:36;;;;;;;66.65;27.88;;;6.30;99.90;;;;;;5081703;28;20086;-46
2022/01/14 10:48:08;;;;;;;67.97;29.55;;;6.30;99.90;;;;;;5073002;28;20131;-47
2022/01/14 10:50:46;;;;;;;65.15;28.02;;;6.30;99.90;;;;;;5086441;28;20054;-46
2022/01/14 10:53:16;;;;;;;64.70;28.85;;;6.30;99.90;;;;;;5077057;28;20409;-48
2022/01/14 10:55:48;;;;;;;65.27;27.80;;;6.40;99.90;;;;;;5086678;28;20576;-47
2022/01/14 10:58:16;;;;;;;56.65;27.80;;;6.40;99.90;;;;;;5076814;28;20017;-47
2022/01/14 11:00:45;;;;;;;61.97;27.90;;;6.50;99.90;;;;;;5082906;28;20178;-47
2022/01/14 11:03:11;;;;;;;58.45;28.77;;;6.60;99.90;;;;;;5079956;28;20484;-46
2022/01/14 11:05:37;;;;;;;64.90;28.98;;;6.60;99.90;;;;;;5082434;28;20028;-48
2022/01/14 11:08:04;;;;;;;59.80;27.02;;;6.50;99.90;;;;;;5077118;28;20089;-46
2022/01/14 11:10:33;;;;;;;57.65;28.00;;;6.60;99.90;;;;;;5078893;28;20389;-47
2022/01/14 11:13:01;;;;;;;56.60;27.98;;;6.60;99.90;;;;;;5079966;28;20048;-46
2022/01/14 11:15:29;;;;;;;57.40;27.45;;;6.60;99.90;;;;;;5079579;28;20099;-47
2022/01/14 11:17:56;;;;;;;60.70;27.50;;;6.60;99.90;;;;;;5079802;28;20020;-47
2022/01/14 11:20:33;;;;;;;67.43;29.80;;;6.60;99.90;;;;;;5078794;28;20012;-48
2022/01/14 11:23:15;;;;;;;61.15;26.83;;;6.60;99.90;;;;;;5073876;28;20021;-47
2022/01/14 11:25:55;;;;;;;55.30;27.80;;;6.60;99.90;;;;;;5074939;28;20012;-47
2022/01/14 11:28:30;;;;;;;61.78;30.13;;;6.60;99.90;;;;;;5083549;28;20016;-48
2022/01/14 11:30:57;;;;;;;64.75;28.10;;;6.60;99.90;;;;;;5078220;28;20055;-47
2022/01/14 11:33:41;;;;;;;65.82;28.85;;;6.60;99.90;;;;;;5083603;28;20024;-49
2022/01/14 11:36:08;;;;;;;67.90;29.50;;;6.70;99.90;;;;;;5076001;28;20077;-49
2022/01/14 11:38:40;;;;;;;66.20;29.00;;;6.60;99.90;;;;;;5082826;28;20035;-48
2022/01/14 11:41:07;;;;;;;65.20;28.13;;;6.70;99.90;;;;;;5076702;28;20028;-46
2022/01/14 11:43:43;;;;;;;60.58;28.73;;;6.70;99.90;;;;;;5084349;28;20094;-47
2022/01/14 11:46:11;;;;;;;66.82;28.52;;;6.70;99.90;;;;;;5077351;28;20059;-46
2022/01/14 11:48:49;;;;;;;58.70;27.90;;;6.60;99.90;;;;;;5083647;28;20058;-48
2022/01/14 11:51:17;;;;;;;59.63;29.38;;;6.60;99.90;;;;;;5078127;28;20393;-47
2022/01/14 11:53:53;;;;;;;63.20;27.67;;;6.60;99.90;;;;;;5084191;28;20393;-47
2022/01/14 11:56:31;;;;;;;59.80;28.88;;;6.70;99.90;;;;;;5066297;28;20215;-46
2022/01/14 11:59:22;;;;;;;63.50;28.20;;;6.60;99.90;;;;;;5064510;28;20028;-48
2022/01/14 12:01:49;;;;;;;62.53;28.92;;;6.70;99.90;;;;;;5063543;28;20048;-46
2022/01/14 12:04:15;;;;;;;66.35;29.20;;;6.70;99.90;;;;;;5084730;28;20077;-46
2022/01/14 12:06:49;;;;;;;58.00;26.25;;;6.60;99.90;;;;;;5074856;28;20103;-46
2022/01/14 12:09:19;;;;;;;63.40;29.65;;;6.60;99.90;;;;;;5085898;28;20043;-47
2022/01/14 12:11:44;;;;;;;57.90;27.50;;;6.60;99.90;;;;;;5070310;28;20033;-47
2022/01/14 12:14:12;;;;;;;51.08;26.73;;;6.60;99.90;;;;;;5086175;28;20035;-46
2022/01/14 12:17:00;;;;;;;60.53;26.40;;;6.60;99.90;;;;;;5078288;28;20020;-46
2022/01/14 12:19:28;;;;;;;59.72;27.08;;;6.60;99.90;;;;;;5046652;28;20086;-47
2022/01/14 12:21:55;;;;;;;56.28;27.48;;;6.60;99.90;;;;;;5071886;28;20048;-45
2022/01/14 12:24:30;;;;;;;57.78;27.70;;;6.70;99.90;;;;;;5086217;28;20025;-46
2022/01/14 12:27:03;;;;;;;53.35;25.65;;;6.70;99.90;;;;;;5076810;28;20021;-46
2022/01/14 12:29:39;;;;;;;64.15;28.77;;;6.70;99.90;;;;;;5086183;28;20024;-46
2022/01/14 12:32:14;;;;;;;62.47;27.60;;;6.70;99.90;;;;;;5075887;28;20028;-49
2022/01/14 12:34:55;;;;;;;55.33;26.75;;;6.70;99.90;;;;;;5080953;28;20413;-47
2022/01/14 12:37:31;;;;;;;56.35;26.55;;;6.70;99.90;;;;;;5073118;28;20074;-50
2022/01/14 12:40:02;;;;;;;62.25;26.63;;;6.70;99.90;;;;;;5082451;28;20089;-48
2022/01/14 12:42:28;;;;;;;59.30;27.63;;;6.70;99.90;;;;;;5072455;28;20367;-48
2022/01/14 12:44:54;;;;;;;60.20;27.42;;;6.70;99.90;;;;;;5082647;28;20034;-48
2022/01/14 12:47:25;;;;;;;56.28;26.80;;;6.70;99.90;;;;;;5073760;28;20107;-49
2022/01/14 12:49:51;;;;;;;50.92;27.05;;;6.70;99.90;;;;;;5082832;28;20032;-50
2022/01/14 12:52:29;;;;;;;63.05;27.88;;;6.70;99.90;;;;;;5075786;28;20043;-47
2022/01/14 12:54:55;;;;;;;59.38;27.65;;;6.70;99.90;;;;;;5082797;28;20031;-48
2022/01/14 12:57:24;;;;;;;56.33;25.98;;;6.70;99.90;;;;;;5075412;28;20086;-48
2022/01/14 12:59:51;;;;;;;55.70;27.23;;;6.70;99.90;;;;;;5081990;28;20616;-49
2022/01/14 13:02:18;;;;;;;59.58;28.23;;;6.60;99.90;;;;;;5077463;28;20486;-47
2022/01/14 13:04:44;;;;;;;62.83;26.75;;;6.60;99.90;;;;;;5082263;28;20128;-51